Overview Statistics Trail Chart Weather Telemetry Raw packets
 

This is the latest recevied weather packets stored in our database for station/object SP4MGL-10. If no packets are shown the sender has not sent any weather packets the latest 10 day(s).

<< 16 17 18 19 20 21 22 >>
Time Temp. Humidity Pressure Rain* Wind** Luminosity Snow
1788084190 24.44° C 52% 1015.5 hPa - - - -
1788083290 23.33° C 53% 1015.6 hPa - - - -
1788082390 22.78° C 56% 1015.6 hPa - - - -
1788081490 21.67° C 60% 1015.6 hPa - - - -
1788080590 21.67° C 60% 1015.7 hPa - - - -
1788079689 21.11° C 64% 1015.7 hPa - - - -
1788078789 20.56° C 63% 1015.8 hPa - - - -
1788077889 20.56° C 64% 1015.8 hPa - - - -
1788076989 20° C 68% 1015.8 hPa - - - -
1788076089 18.89° C 71% 1015.8 hPa - - - -
1788075189 18.89° C 72% 1015.9 hPa - - - -
1788074288 18.33° C 72% 1015.8 hPa - - - -
1788073388 18.33° C 72% 1015.7 hPa - - - -
1788072488 17.78° C 74% 1015.7 hPa - - - -
1788071588 17.78° C 75% 1015.8 hPa - - - -
1788070688 17.22° C 76% 1015.8 hPa - - - -
1788069787 16.67° C 79% 1015.8 hPa - - - -
1788068887 15.56° C 83% 1015.9 hPa - - - -
1788067987 15° C 86% 1015.8 hPa - - - -
1788067087 14.44° C 89% 1015.9 hPa - - - -
1788066187 13.89° C 90% 1015.7 hPa - - - -
1788065287 13.89° C 91% 1015.7 hPa - - - -
1788064386 13.33° C 92% 1015.8 hPa - - - -
1788063486 13.33° C 92% 1015.8 hPa - - - -
1788062586 13.33° C 93% 1015.8 hPa - - - -

* Rain since midnight (hover to see other rain measurements)
** Current wind speed in m/s (hover to see current wind gust speed)